createdAt,value
2023-05-19T00:00:00.075Z,98708.55
2023-05-19T00:01:08.716Z,98704.80
2023-05-19T00:02:17.877Z,98707.05
2023-05-19T00:03:28.933Z,98707.31
2023-05-19T00:04:36.769Z,98708.55
2023-05-19T00:05:47.240Z,98706.56
2023-05-19T00:06:57.431Z,98707.16
2023-05-19T00:08:04.818Z,98709.20
2023-05-19T00:09:12.605Z,98707.55
2023-05-19T00:10:20.894Z,98708.73
2023-05-19T00:11:28.908Z,98708.66
2023-05-19T00:12:36.012Z,98707.91
2023-05-19T00:13:43.197Z,98709.84
2023-05-19T00:14:50.496Z,98709.78
2023-05-19T00:15:57.578Z,98709.03
2023-05-19T00:17:05.534Z,98708.44
2023-05-19T00:18:15.567Z,98707.84
2023-05-19T00:19:23.301Z,98709.45
2023-05-19T00:20:34.174Z,98709.71
2023-05-19T00:21:41.707Z,98708.59
2023-05-19T00:22:48.612Z,98708.04
2023-05-19T00:23:55.643Z,98709.44
2023-05-19T00:25:02.484Z,98707.61
2023-05-19T00:26:12.729Z,98707.18
2023-05-19T00:27:22.345Z,98706.73
2023-05-19T00:28:29.909Z,98706.75
2023-05-19T00:29:36.834Z,98706.21
2023-05-19T00:30:45.146Z,98707.77
2023-05-19T00:31:52.552Z,98707.48
2023-05-19T00:32:59.792Z,98704.21
2023-05-19T00:34:07.087Z,98705.45
2023-05-19T00:35:13.989Z,98701.16
2023-05-19T00:36:20.883Z,98700.95
2023-05-19T00:37:31.513Z,98703.95
2023-05-19T00:38:38.766Z,98701.92
2023-05-19T00:39:45.661Z,98703.70
2023-05-19T00:40:52.840Z,98702.41
2023-05-19T00:41:59.417Z,98705.23
2023-05-19T00:43:10.805Z,98708.93
2023-05-19T00:44:18.383Z,98708.88
2023-05-19T00:45:27.742Z,98710.27
2023-05-19T00:46:36.086Z,98716.65
2023-05-19T00:47:43.370Z,98717.88
2023-05-19T00:48:51.320Z,98721.20
2023-05-19T00:49:58.696Z,98721.36
2023-05-19T00:51:07.816Z,98720.61
2023-05-19T00:52:15.013Z,98719.02
2023-05-19T00:53:22.277Z,98720.41
2023-05-19T00:54:30.485Z,98719.17
2023-05-19T00:55:38.754Z,98717.23
2023-05-19T00:56:46.078Z,98717.83
2023-05-19T00:57:53.679Z,98719.00
2023-05-19T00:59:02.065Z,98718.46
2023-05-19T01:00:11.491Z,98716.42
2023-05-19T01:01:19.304Z,98716.30
2023-05-19T01:02:27.086Z,98719.20
2023-05-19T01:03:36.579Z,98719.78
2023-05-19T01:04:46.047Z,98718.02
2023-05-19T01:05:55.117Z,98719.20
2023-05-19T01:07:02.986Z,98718.13
2023-05-19T01:08:12.134Z,98719.14
2023-05-19T01:09:20.024Z,98719.46
2023-05-19T01:10:27.920Z,98718.55
2023-05-19T01:11:35.015Z,98719.89
2023-05-19T01:12:42.874Z,98719.64
2023-05-19T01:13:49.757Z,98721.19
2023-05-19T01:14:58.848Z,98721.56
2023-05-19T01:16:33.438Z,98720.27
2023-05-19T01:18:05.604Z,98724.03
2023-05-19T01:19:52.074Z,98726.61
2023-05-19T01:21:25.318Z,98727.14
2023-05-19T01:22:49.570Z,98728.16
2023-05-19T01:24:32.515Z,98725.20
2023-05-19T01:26:11.675Z,98723.81
2023-05-19T01:27:45.045Z,98723.96
2023-05-19T01:29:07.996Z,98727.83
2023-05-19T01:30:44.684Z,98726.06
2023-05-19T01:31:52.371Z,98729.02
2023-05-19T01:33:03.608Z,98734.39
2023-05-19T01:34:11.579Z,98735.72
2023-05-19T01:35:19.883Z,98737.76
2023-05-19T01:36:27.820Z,98732.34
2023-05-19T01:37:35.349Z,98732.98
2023-05-19T01:38:42.534Z,98730.71
2023-05-19T01:39:50.127Z,98731.45
2023-05-19T01:40:58.287Z,98730.33
2023-05-19T01:42:07.390Z,98730.16
2023-05-19T01:43:21.267Z,98729.45
2023-05-19T01:44:30.047Z,98726.55
2023-05-19T01:45:38.810Z,98726.27
2023-05-19T01:46:46.051Z,98726.08
2023-05-19T01:47:57.148Z,98728.91
2023-05-19T01:49:05.950Z,98729.35
2023-05-19T01:50:14.019Z,98734.70
2023-05-19T01:51:21.582Z,98736.75
2023-05-19T01:52:29.254Z,98741.09
2023-05-19T01:53:37.093Z,98743.94
2023-05-19T01:54:45.135Z,98746.41
2023-05-19T01:55:55.194Z,98746.69
2023-05-19T01:57:14.932Z,98750.65
2023-05-19T01:58:39.932Z,98752.95
2023-05-19T02:00:26.383Z,98755.09
2023-05-19T02:01:39.957Z,98757.08
2023-05-19T02:03:08.434Z,98757.99
2023-05-19T02:04:41.262Z,98758.63
2023-05-19T02:05:58.778Z,98762.61
2023-05-19T02:07:39.771Z,98760.46
2023-05-19T02:09:05.293Z,98761.63
2023-05-19T02:10:25.142Z,98764.75
2023-05-19T02:11:56.894Z,98765.98
2023-05-19T02:13:05.739Z,98764.38
2023-05-19T02:14:37.960Z,98766.94
2023-05-19T02:15:45.931Z,98766.84
2023-05-19T02:16:53.476Z,98770.86
2023-05-19T02:18:02.017Z,98773.59
2023-05-19T02:19:18.440Z,98774.55
2023-05-19T02:20:26.895Z,98771.98
2023-05-19T02:21:35.294Z,98776.77
2023-05-19T02:22:43.366Z,98775.90
2023-05-19T02:23:52.389Z,98774.77
2023-05-19T02:25:00.144Z,98777.51
2023-05-19T02:26:07.375Z,98778.35
2023-05-19T02:27:15.169Z,98779.69
2023-05-19T02:28:24.932Z,98779.41
2023-05-19T02:29:32.978Z,98778.88
2023-05-19T02:30:40.261Z,98779.54
2023-05-19T02:31:47.932Z,98782.33
2023-05-19T02:32:56.002Z,98783.66
2023-05-19T02:34:03.820Z,98786.88
2023-05-19T02:35:11.864Z,98789.29
2023-05-19T02:36:20.735Z,98792.02
2023-05-19T02:37:30.095Z,98798.61
2023-05-19T02:38:38.019Z,98796.25
2023-05-19T02:39:47.610Z,98801.02
2023-05-19T02:40:54.909Z,98800.00
2023-05-19T02:42:02.649Z,98804.52
2023-05-19T02:43:10.818Z,98803.27
2023-05-19T02:44:17.808Z,98804.83
2023-05-19T02:45:25.646Z,98806.91
2023-05-19T02:46:34.767Z,98806.86
2023-05-19T02:47:42.761Z,98809.02
2023-05-19T02:48:50.591Z,98809.92
2023-05-19T02:49:58.268Z,98812.34
2023-05-19T02:51:05.719Z,98811.60
2023-05-19T02:52:14.123Z,98814.54
2023-05-19T02:53:22.019Z,98813.15
2023-05-19T02:54:30.058Z,98816.91
2023-05-19T02:55:39.153Z,98818.19
2023-05-19T02:56:46.722Z,98819.57
2023-05-19T02:57:55.100Z,98820.86
2023-05-19T02:59:03.857Z,98820.21
2023-05-19T03:00:11.947Z,98823.42
2023-05-19T03:01:19.771Z,98824.23
2023-05-19T03:02:28.684Z,98825.67
2023-05-19T03:03:36.856Z,98823.54
2023-05-19T03:04:44.297Z,98825.09
2023-05-19T03:05:52.321Z,98825.03
2023-05-19T03:07:00.343Z,98826.33
2023-05-19T03:08:07.846Z,98827.71
2023-05-19T03:09:16.600Z,98828.89
2023-05-19T03:10:24.156Z,98831.36
2023-05-19T03:11:32.610Z,98834.46
2023-05-19T03:12:39.999Z,98829.85
2023-05-19T03:13:47.750Z,98830.87
2023-05-19T03:14:55.598Z,98832.31
2023-05-19T03:16:03.757Z,98838.91
2023-05-19T03:17:11.892Z,98839.88
2023-05-19T03:18:19.736Z,98836.98
2023-05-19T03:19:29.275Z,98838.16
2023-05-19T03:20:36.510Z,98842.08
2023-05-19T03:21:44.494Z,98842.56
2023-05-19T03:22:51.979Z,98840.84
2023-05-19T03:24:00.484Z,98838.06
2023-05-19T03:25:08.337Z,98840.91
2023-05-19T03:26:16.110Z,98838.98
2023-05-19T03:27:24.666Z,98839.67
2023-05-19T03:28:33.126Z,98841.05
2023-05-19T03:29:40.441Z,98842.30
2023-05-19T03:30:47.521Z,98841.60
2023-05-19T03:31:57.807Z,98842.35
2023-05-19T03:33:07.484Z,98847.65
2023-05-19T03:34:14.470Z,98850.28
2023-05-19T03:35:22.004Z,98849.73
2023-05-19T03:36:33.100Z,98853.12
2023-05-19T03:37:40.229Z,98852.91
2023-05-19T03:38:50.789Z,98856.02
2023-05-19T03:40:00.013Z,98856.55
2023-05-19T03:41:07.832Z,98858.38
2023-05-19T03:42:14.808Z,98860.79
2023-05-19T03:43:21.899Z,98862.02
2023-05-19T03:44:35.559Z,98862.23
2023-05-19T03:45:42.339Z,98862.08
2023-05-19T03:47:10.408Z,98863.14
2023-05-19T03:48:37.263Z,98867.27
2023-05-19T03:50:05.163Z,98866.17
2023-05-19T03:51:22.043Z,98868.27
2023-05-19T03:52:30.563Z,98869.34
2023-05-19T03:53:44.517Z,98868.58
2023-05-19T03:54:52.408Z,98870.56
2023-05-19T03:55:59.730Z,98875.55
2023-05-19T03:57:08.184Z,98875.16
2023-05-19T03:58:15.969Z,98874.68
2023-05-19T03:59:25.480Z,98876.77
2023-05-19T04:00:33.550Z,98876.23
2023-05-19T04:01:41.594Z,98891.89
2023-05-19T04:02:49.453Z,98900.11
2023-05-19T04:03:56.274Z,98897.52
2023-05-19T04:05:06.866Z,98897.78
2023-05-19T04:06:15.299Z,98901.38
2023-05-19T04:07:23.887Z,98900.04
2023-05-19T04:08:32.030Z,98901.06
2023-05-19T04:09:40.425Z,98904.98
2023-05-19T04:10:47.970Z,98900.85
2023-05-19T04:11:56.424Z,98902.30
2023-05-19T04:13:05.255Z,98904.02
2023-05-19T04:14:12.275Z,98904.52
2023-05-19T04:15:20.043Z,98900.80
2023-05-19T04:16:28.546Z,98901.66
2023-05-19T04:17:36.968Z,98905.31
2023-05-19T04:18:44.117Z,98903.32
2023-05-19T04:19:52.488Z,98903.80
2023-05-19T04:21:01.078Z,98903.64
2023-05-19T04:22:08.600Z,98910.55
2023-05-19T04:23:16.141Z,98908.57
2023-05-19T04:24:24.598Z,98912.16
2023-05-19T04:25:33.720Z,98912.11
2023-05-19T04:26:43.137Z,98911.67
2023-05-19T04:27:52.964Z,98913.23
2023-05-19T04:29:00.849Z,98914.42
2023-05-19T04:30:11.547Z,98916.52
2023-05-19T04:31:20.362Z,98916.77
2023-05-19T04:32:30.094Z,98917.36
2023-05-19T04:33:39.435Z,98916.93
2023-05-19T04:34:47.376Z,98914.52
2023-05-19T04:36:02.947Z,98915.43
2023-05-19T04:37:12.021Z,98918.43
2023-05-19T04:38:21.573Z,98918.05
2023-05-19T04:39:29.575Z,98918.86
2023-05-19T04:40:37.751Z,98918.52
2023-05-19T04:41:46.837Z,98920.78
2023-05-19T04:42:55.310Z,98921.86
2023-05-19T04:44:03.691Z,98920.56
2023-05-19T04:45:14.330Z,98921.70
2023-05-19T04:46:26.529Z,98919.39
2023-05-19T04:47:38.492Z,98918.16
2023-05-19T04:48:45.407Z,98921.74
2023-05-19T04:49:57.992Z,98920.73
2023-05-19T04:51:05.941Z,98922.08
2023-05-19T04:52:14.029Z,98923.47
2023-05-19T04:53:23.831Z,98927.92
2023-05-19T04:54:31.341Z,98924.17
2023-05-19T04:55:40.217Z,98926.48
2023-05-19T04:56:49.225Z,98926.21
2023-05-19T04:57:57.941Z,98927.66
2023-05-19T04:59:06.508Z,98925.94
2023-05-19T05:00:16.491Z,98927.02
2023-05-19T05:01:36.035Z,98925.52
2023-05-19T05:02:44.284Z,98929.11
2023-05-19T05:03:52.968Z,98930.40
2023-05-19T05:05:01.086Z,98928.19
2023-05-19T05:06:09.122Z,98930.06
2023-05-19T05:07:16.997Z,98926.35
2023-05-19T05:08:25.206Z,98927.96
2023-05-19T05:09:34.032Z,98927.42
2023-05-19T05:10:42.819Z,98927.38
2023-05-19T05:11:50.709Z,98926.29
2023-05-19T05:12:58.871Z,98924.84
2023-05-19T05:14:05.732Z,98926.09
2023-05-19T05:15:13.356Z,98925.16
2023-05-19T05:16:20.647Z,98925.33
2023-05-19T05:17:30.541Z,98924.27
2023-05-19T05:18:41.163Z,98921.52
2023-05-19T05:19:52.274Z,98922.87
2023-05-19T05:21:01.448Z,98922.05
2023-05-19T05:22:10.208Z,98923.52
2023-05-19T05:23:20.589Z,98921.52
2023-05-19T05:24:29.435Z,98923.83
2023-05-19T05:25:39.117Z,98924.79
2023-05-19T05:26:47.684Z,98926.55
2023-05-19T05:27:57.054Z,98928.11
2023-05-19T05:29:06.193Z,98928.81
2023-05-19T05:30:15.671Z,98928.00
2023-05-19T05:31:23.159Z,98930.25
2023-05-19T05:32:32.708Z,98927.63
2023-05-19T05:33:41.135Z,98927.02
2023-05-19T05:34:49.893Z,98928.05
2023-05-19T05:35:58.020Z,98929.60
2023-05-19T05:37:06.523Z,98926.70
2023-05-19T05:38:15.549Z,98927.52
2023-05-19T05:39:23.879Z,98926.81
2023-05-19T05:40:32.119Z,98925.36
2023-05-19T05:41:39.012Z,98926.33
2023-05-19T05:42:51.556Z,98927.41
2023-05-19T05:43:59.027Z,98924.84
2023-05-19T05:45:07.506Z,98926.60
2023-05-19T05:46:15.392Z,98930.20
2023-05-19T05:47:22.802Z,98932.34
2023-05-19T05:48:32.007Z,98934.48
2023-05-19T05:49:40.774Z,98933.63
2023-05-19T05:50:48.440Z,98935.39
2023-05-19T05:52:05.709Z,98935.82
2023-05-19T05:53:20.916Z,98935.77
2023-05-19T05:54:32.955Z,98937.21
2023-05-19T05:55:40.178Z,98937.10
2023-05-19T05:56:48.554Z,98938.81
2023-05-19T05:57:58.958Z,98938.00
2023-05-19T05:59:07.237Z,98940.38
2023-05-19T06:00:18.907Z,98941.50
2023-05-19T06:01:33.686Z,98941.87
2023-05-19T06:02:49.650Z,98947.40
2023-05-19T06:03:57.740Z,98946.48
2023-05-19T06:05:07.219Z,98948.71
2023-05-19T06:06:15.021Z,98949.89
2023-05-19T06:07:24.480Z,98945.95
2023-05-19T06:08:32.618Z,98945.42
2023-05-19T06:09:39.867Z,98945.09
2023-05-19T06:10:49.061Z,98949.90
2023-05-19T06:11:56.923Z,98949.27
2023-05-19T06:13:05.043Z,98950.23
2023-05-19T06:14:14.190Z,98951.08
2023-05-19T06:15:35.150Z,98952.89
2023-05-19T06:16:50.371Z,98951.52
2023-05-19T06:17:58.665Z,98954.31
2023-05-19T06:19:06.408Z,98954.78
2023-05-19T06:20:15.129Z,98955.56
2023-05-19T06:21:23.317Z,98955.70
2023-05-19T06:22:31.502Z,98959.23
2023-05-19T06:23:39.302Z,98957.81
2023-05-19T06:24:48.374Z,98956.58
2023-05-19T06:25:56.466Z,98959.82
2023-05-19T06:27:05.045Z,98958.35
2023-05-19T06:28:13.330Z,98958.16
2023-05-19T06:29:20.781Z,98956.58
2023-05-19T06:30:30.026Z,98958.29
2023-05-19T06:31:43.545Z,98955.45
2023-05-19T06:32:53.916Z,98956.58
2023-05-19T06:34:02.972Z,98961.55
2023-05-19T06:35:10.303Z,98960.21
2023-05-19T06:36:18.035Z,98964.84
2023-05-19T06:37:26.803Z,98967.48
2023-05-19T06:38:35.925Z,98969.04
2023-05-19T06:39:42.967Z,98972.94
2023-05-19T06:40:51.204Z,98980.83
2023-05-19T06:41:58.971Z,98982.74
2023-05-19T06:43:27.427Z,98984.27
2023-05-19T06:44:42.368Z,98982.45
2023-05-19T06:45:50.470Z,98984.63
2023-05-19T06:46:57.993Z,98985.52
2023-05-19T06:48:05.262Z,98985.08
2023-05-19T06:49:13.083Z,98982.50
2023-05-19T06:50:22.209Z,98985.00
2023-05-19T06:51:29.153Z,98985.02
2023-05-19T06:52:36.301Z,98983.19
2023-05-19T06:53:42.991Z,98982.33
2023-05-19T06:54:51.225Z,98981.23
2023-05-19T06:55:59.844Z,98978.15
2023-05-19T06:57:11.696Z,98975.35
2023-05-19T06:58:18.858Z,98978.03
2023-05-19T06:59:25.951Z,98977.64
2023-05-19T07:00:32.890Z,98976.64
2023-05-19T07:01:40.748Z,98974.59
2023-05-19T07:02:49.058Z,98975.89
2023-05-19T07:03:56.779Z,98974.26
2023-05-19T07:05:04.888Z,98972.41
2023-05-19T07:06:12.416Z,98971.11
2023-05-19T07:07:20.585Z,98972.86
2023-05-19T07:08:29.315Z,98971.30
2023-05-19T07:09:37.196Z,98968.94
2023-05-19T07:10:44.969Z,98970.50
2023-05-19T07:11:53.634Z,98970.29
2023-05-19T07:13:01.010Z,98970.55
2023-05-19T07:14:12.690Z,98969.04
2023-05-19T07:15:20.637Z,98969.46
2023-05-19T07:16:29.133Z,98971.66
2023-05-19T07:17:35.802Z,98969.56
2023-05-19T07:18:42.492Z,98969.20
2023-05-19T07:19:50.810Z,98969.25
2023-05-19T07:20:59.445Z,98970.68
2023-05-19T07:22:06.736Z,98971.27
2023-05-19T07:23:14.312Z,98964.66
2023-05-19T07:24:24.278Z,98965.08
2023-05-19T07:25:32.084Z,98961.67
2023-05-19T07:26:40.271Z,98957.70
2023-05-19T07:27:47.162Z,98961.45
2023-05-19T07:28:55.320Z,98959.89
2023-05-19T07:30:02.824Z,98959.06
2023-05-19T07:31:09.773Z,98961.48
2023-05-19T07:32:17.216Z,98960.67
2023-05-19T07:33:25.063Z,98963.58
2023-05-19T07:34:32.648Z,98966.37
2023-05-19T07:35:39.433Z,98968.89
2023-05-19T07:36:46.106Z,98968.71
2023-05-19T07:37:54.528Z,98969.77
2023-05-19T07:39:01.752Z,98967.24
2023-05-19T07:40:12.829Z,98966.11
2023-05-19T07:41:19.836Z,98961.48
2023-05-19T07:42:27.274Z,98957.86
2023-05-19T07:43:34.118Z,98953.30
2023-05-19T07:44:41.738Z,98953.35
2023-05-19T07:45:49.858Z,98951.63
2023-05-19T07:46:56.942Z,98946.14
2023-05-19T07:48:04.170Z,98945.15
2023-05-19T07:49:11.730Z,98943.86
2023-05-19T07:50:18.919Z,98943.05
2023-05-19T07:51:27.937Z,98942.23
2023-05-19T07:52:35.466Z,98939.33
2023-05-19T07:53:43.236Z,98941.37
2023-05-19T07:54:50.996Z,98944.50
2023-05-19T07:55:58.913Z,98945.70
2023-05-19T07:57:07.056Z,98945.27
2023-05-19T07:58:17.098Z,98943.65
2023-05-19T07:59:23.828Z,98946.17
2023-05-19T08:00:30.794Z,98948.86
2023-05-19T08:01:38.246Z,98947.52
2023-05-19T08:02:45.434Z,98949.38
2023-05-19T08:03:52.846Z,98946.27
2023-05-19T08:05:00.349Z,98948.13
2023-05-19T08:06:08.028Z,98946.14
2023-05-19T08:07:14.961Z,98945.44
2023-05-19T08:08:21.723Z,98946.18
2023-05-19T08:09:29.580Z,98945.38
2023-05-19T08:10:36.452Z,98945.15
2023-05-19T08:11:43.094Z,98948.98
2023-05-19T08:12:50.443Z,98950.15
2023-05-19T08:13:57.470Z,98950.89
2023-05-19T08:15:05.260Z,98954.39
2023-05-19T08:16:12.974Z,98955.09
2023-05-19T08:17:20.653Z,98958.48
2023-05-19T08:18:29.394Z,98960.25
2023-05-19T08:19:37.037Z,98957.45
2023-05-19T08:20:44.494Z,98959.16
2023-05-19T08:21:52.945Z,98957.10
2023-05-19T08:23:01.399Z,98958.82
2023-05-19T08:24:08.864Z,98957.40
2023-05-19T08:25:17.733Z,98955.64
2023-05-19T08:26:25.885Z,98955.38
2023-05-19T08:27:34.140Z,98956.55
2023-05-19T08:28:41.570Z,98951.88
2023-05-19T08:29:49.408Z,98952.77
2023-05-19T08:30:56.627Z,98949.65
2023-05-19T08:32:05.096Z,98947.51
2023-05-19T08:33:13.926Z,98948.30
2023-05-19T08:34:21.743Z,98948.23
2023-05-19T08:35:30.246Z,98949.91
2023-05-19T08:36:37.145Z,98947.38
2023-05-19T08:37:45.896Z,98948.23
2023-05-19T08:38:53.837Z,98945.50
2023-05-19T08:40:01.531Z,98943.50
2023-05-19T08:41:10.379Z,98944.90
2023-05-19T08:42:17.910Z,98943.55
2023-05-19T08:43:26.369Z,98946.02
2023-05-19T08:44:34.015Z,98944.60
2023-05-19T08:45:45.257Z,98942.45
2023-05-19T08:46:54.937Z,98943.15
2023-05-19T08:48:02.716Z,98940.56
2023-05-19T08:49:14.012Z,98937.94
2023-05-19T08:50:26.064Z,98935.77
2023-05-19T08:51:46.532Z,98931.84
2023-05-19T08:53:18.131Z,98931.05
2023-05-19T08:54:36.573Z,98927.27
2023-05-19T08:56:05.090Z,98927.65
2023-05-19T08:57:12.961Z,98928.73
2023-05-19T08:58:22.224Z,98928.89
2023-05-19T08:59:29.921Z,98929.53
2023-05-19T09:00:37.841Z,98929.85
2023-05-19T09:01:48.967Z,98933.66
2023-05-19T09:03:00.987Z,98936.13
2023-05-19T09:04:19.056Z,98936.98
2023-05-19T09:05:26.401Z,98938.55
2023-05-19T09:06:34.009Z,98936.59
2023-05-19T09:07:44.118Z,98933.90
2023-05-19T09:08:51.654Z,98933.09
2023-05-19T09:09:58.316Z,98933.41
2023-05-19T09:11:06.210Z,98931.83
2023-05-19T09:12:14.484Z,98932.59
2023-05-19T09:13:21.849Z,98930.11
2023-05-19T09:14:29.177Z,98931.61
2023-05-19T09:15:38.304Z,98931.23
2023-05-19T09:16:44.895Z,98930.15
2023-05-19T09:17:52.425Z,98927.95
2023-05-19T09:19:00.342Z,98926.45
2023-05-19T09:20:13.182Z,98929.56
2023-05-19T09:21:20.038Z,98928.55
2023-05-19T09:22:28.511Z,98929.46
2023-05-19T09:23:36.456Z,98931.93
2023-05-19T09:24:44.190Z,98931.29
2023-05-19T09:25:53.353Z,98930.59
2023-05-19T09:27:01.179Z,98931.39
2023-05-19T09:28:09.828Z,98931.61
2023-05-19T09:29:20.748Z,98933.54
2023-05-19T09:30:28.022Z,98932.45
2023-05-19T09:31:35.430Z,98933.73
2023-05-19T09:32:43.531Z,98935.27
2023-05-19T09:33:55.278Z,98931.89
2023-05-19T09:35:05.363Z,98934.20
2023-05-19T09:36:13.301Z,98934.15
2023-05-19T09:37:24.830Z,98933.33
2023-05-19T09:38:32.346Z,98931.12
2023-05-19T09:39:39.390Z,98934.07
2023-05-19T09:40:47.098Z,98932.77
2023-05-19T09:42:00.710Z,98933.25
2023-05-19T09:43:09.984Z,98930.46
2023-05-19T09:44:25.644Z,98930.67
2023-05-19T09:45:33.986Z,98932.73
2023-05-19T09:46:46.766Z,98929.16
2023-05-19T09:47:55.105Z,98932.06
2023-05-19T09:49:11.567Z,98930.89
2023-05-19T09:50:18.801Z,98932.13
2023-05-19T09:51:25.793Z,98932.06
2023-05-19T09:52:32.987Z,98928.15
2023-05-19T09:53:43.600Z,98926.42
2023-05-19T09:54:52.963Z,98926.91
2023-05-19T09:56:00.246Z,98928.40
2023-05-19T09:57:08.956Z,98927.87
2023-05-19T09:58:19.308Z,98926.41
2023-05-19T09:59:33.006Z,98923.34
2023-05-19T10:00:41.154Z,98925.44
2023-05-19T10:01:48.454Z,98922.52
2023-05-19T10:02:55.289Z,98922.24
2023-05-19T10:04:03.127Z,98921.49
2023-05-19T10:05:13.474Z,98925.20
2023-05-19T10:06:20.760Z,98926.84
2023-05-19T10:07:29.453Z,98926.63
2023-05-19T10:08:37.314Z,98927.21
2023-05-19T10:09:44.602Z,98927.48
2023-05-19T10:10:53.022Z,98927.02
2023-05-19T10:12:01.671Z,98925.58
2023-05-19T10:13:09.622Z,98926.00
2023-05-19T10:14:17.482Z,98923.06
2023-05-19T10:15:25.299Z,98921.56
2023-05-19T10:16:33.802Z,98920.27
2023-05-19T10:17:44.935Z,98922.05
2023-05-19T10:18:52.365Z,98919.88
2023-05-19T10:19:59.215Z,98922.39
2023-05-19T10:21:08.024Z,98922.77
2023-05-19T10:22:16.776Z,98923.88
2023-05-19T10:23:25.352Z,98920.44
2023-05-19T10:24:33.252Z,98921.73
2023-05-19T10:25:41.340Z,98920.27
2023-05-19T10:27:06.471Z,98924.04
2023-05-19T10:28:16.864Z,98919.91
2023-05-19T10:29:28.561Z,98917.70
2023-05-19T10:30:39.632Z,98921.91
2023-05-19T10:31:48.108Z,98917.11
2023-05-19T10:32:56.259Z,98915.00
2023-05-19T10:34:42.888Z,98913.92
2023-05-19T10:36:23.341Z,98913.80
2023-05-19T10:37:49.352Z,98909.39
2023-05-19T10:39:09.012Z,98910.41
2023-05-19T10:40:25.177Z,98909.89
2023-05-19T10:43:16.314Z,98916.34
2023-05-19T10:45:02.667Z,98917.20
2023-05-19T10:46:10.197Z,98923.98
2023-05-19T10:47:18.679Z,98928.38
2023-05-19T10:48:26.625Z,98932.07
2023-05-19T10:49:37.876Z,98936.41
2023-05-19T10:50:49.493Z,98939.59
2023-05-19T10:51:59.910Z,98944.02
2023-05-19T10:53:07.750Z,98946.59
2023-05-19T10:54:17.840Z,98947.84
2023-05-19T10:55:49.690Z,98953.58
2023-05-19T10:56:57.153Z,98953.27
2023-05-19T10:58:04.704Z,98960.30
2023-05-19T10:59:32.808Z,98962.77
2023-05-19T11:00:40.036Z,98964.48
2023-05-19T11:01:48.820Z,98965.72
2023-05-19T11:03:02.641Z,98966.99
2023-05-19T11:04:15.493Z,98973.61
2023-05-19T11:05:32.351Z,98978.35
2023-05-19T11:06:41.477Z,98978.23
2023-05-19T11:07:59.039Z,98981.46
2023-05-19T11:09:22.541Z,98984.13
2023-05-19T11:10:36.648Z,98987.15
2023-05-19T11:11:52.790Z,98985.69
2023-05-19T11:13:01.609Z,98985.79
2023-05-19T11:14:09.768Z,98984.71
2023-05-19T11:15:18.560Z,98982.51
2023-05-19T11:16:33.429Z,98983.20
2023-05-19T11:17:42.733Z,98988.52
2023-05-19T11:18:56.250Z,98989.33
2023-05-19T11:20:04.130Z,98991.09
2023-05-19T11:21:12.504Z,98994.38
2023-05-19T11:22:19.340Z,98995.13
2023-05-19T11:23:28.182Z,98995.44
2023-05-19T11:24:41.441Z,98993.02
2023-05-19T11:25:55.377Z,98993.55
2023-05-19T11:27:05.293Z,98994.91
2023-05-19T11:28:16.618Z,98997.71
2023-05-19T11:29:24.952Z,98999.20
2023-05-19T11:30:34.074Z,99000.56
2023-05-19T11:31:41.478Z,98985.64
2023-05-19T11:32:49.840Z,98978.82
2023-05-19T11:33:58.904Z,98983.00
2023-05-19T11:35:06.160Z,98986.27
2023-05-19T11:36:14.612Z,98986.34
2023-05-19T11:37:21.756Z,98989.84
2023-05-19T11:38:30.500Z,98987.52
2023-05-19T11:39:39.262Z,98989.02
2023-05-19T11:40:48.165Z,98989.98
2023-05-19T11:41:57.924Z,98990.04
2023-05-19T11:43:05.776Z,98994.17
2023-05-19T11:44:14.550Z,98996.27
2023-05-19T11:45:27.980Z,98997.28
2023-05-19T11:46:36.953Z,98996.14
2023-05-19T11:48:00.225Z,98997.60
2023-05-19T11:49:09.780Z,98995.70
2023-05-19T11:50:18.924Z,98995.01
2023-05-19T11:51:27.151Z,98992.99
2023-05-19T11:52:34.943Z,98995.65
2023-05-19T11:53:42.272Z,98994.31
2023-05-19T11:54:51.195Z,98992.79
2023-05-19T11:55:59.835Z,98993.11
2023-05-19T11:57:10.413Z,98994.06
2023-05-19T11:58:18.635Z,98990.09
2023-05-19T11:59:36.394Z,98990.56
2023-05-19T12:00:44.545Z,98989.96
2023-05-19T12:01:51.226Z,98988.51
2023-05-19T12:02:59.078Z,98990.00
2023-05-19T12:04:13.773Z,98988.39
2023-05-19T12:05:24.980Z,98987.95
2023-05-19T12:06:34.190Z,98986.11
2023-05-19T12:07:42.644Z,98989.56
2023-05-19T12:08:50.492Z,98988.11
2023-05-19T12:09:58.011Z,98989.73
2023-05-19T12:11:05.836Z,98989.99
2023-05-19T12:12:15.941Z,98988.20
2023-05-19T12:13:23.974Z,98984.34
2023-05-19T12:14:32.891Z,98975.95
2023-05-19T12:15:40.539Z,98974.61
2023-05-19T12:16:48.327Z,98974.03
2023-05-19T12:18:01.090Z,98978.78
2023-05-19T12:19:09.422Z,98978.10
2023-05-19T12:20:17.546Z,98979.60
2023-05-19T12:21:24.405Z,98980.15
2023-05-19T12:22:41.550Z,98981.20
2023-05-19T12:23:50.327Z,98981.72
2023-05-19T12:24:57.912Z,98986.83
2023-05-19T12:26:07.332Z,98989.02
2023-05-19T12:27:25.840Z,98990.45
2023-05-19T12:28:33.367Z,98996.29
2023-05-19T12:29:41.568Z,98996.11
2023-05-19T12:30:53.892Z,99000.64
2023-05-19T12:32:01.843Z,99002.48
2023-05-19T12:33:11.562Z,99000.68
2023-05-19T12:34:21.427Z,99004.05
2023-05-19T12:35:35.454Z,99009.08
2023-05-19T12:36:43.287Z,99008.23
2023-05-19T12:37:50.834Z,99006.38
2023-05-19T12:38:57.560Z,99007.27
2023-05-19T12:40:09.318Z,99009.05
2023-05-19T12:41:17.323Z,99012.64
2023-05-19T12:42:25.738Z,99013.52
2023-05-19T12:43:33.765Z,99016.64
2023-05-19T12:44:45.932Z,99019.20
2023-05-19T12:45:53.764Z,99023.05
2023-05-19T12:47:00.906Z,99023.92
2023-05-19T12:48:13.033Z,99024.23
2023-05-19T12:49:20.877Z,99025.70
2023-05-19T12:50:35.912Z,99026.89
2023-05-19T12:51:42.656Z,99030.18
2023-05-19T12:52:54.614Z,99029.99
2023-05-19T12:54:06.813Z,99030.96
2023-05-19T12:55:15.034Z,99031.25
2023-05-19T12:56:22.538Z,99032.45
2023-05-19T12:57:34.409Z,99034.30
2023-05-19T12:58:41.929Z,99034.14
2023-05-19T12:59:50.088Z,99034.15
2023-05-19T13:01:01.602Z,99035.23
2023-05-19T13:02:09.039Z,99038.98
2023-05-19T13:03:23.108Z,99042.83
2023-05-19T13:04:33.553Z,99044.48
2023-05-19T13:05:44.593Z,99045.67
2023-05-19T13:06:52.229Z,99051.50
2023-05-19T13:08:00.834Z,99052.38
2023-05-19T13:09:08.537Z,99049.86
2023-05-19T13:10:16.919Z,99053.03
2023-05-19T13:11:24.381Z,99054.27
2023-05-19T13:12:31.732Z,99060.51
2023-05-19T13:13:39.373Z,99054.29
2023-05-19T13:14:47.654Z,99056.55
2023-05-19T13:15:55.534Z,99061.30
2023-05-19T13:17:02.702Z,99062.76
2023-05-19T13:18:11.296Z,99061.86
2023-05-19T13:20:30.976Z,99058.89
2023-05-19T13:21:38.327Z,99057.38
2023-05-19T13:22:46.676Z,99053.02
2023-05-19T13:23:55.540Z,99054.54
2023-05-19T13:25:03.685Z,99058.52
2023-05-19T13:26:12.753Z,99061.80
2023-05-19T13:27:20.160Z,99065.37
2023-05-19T13:28:28.623Z,99067.73
2023-05-19T13:29:39.112Z,99071.94
2023-05-19T13:30:47.061Z,99077.05
2023-05-19T13:31:53.578Z,99080.86
2023-05-19T13:33:00.286Z,99087.69
2023-05-19T13:34:07.972Z,99090.86
2023-05-19T13:35:16.759Z,99095.32
2023-05-19T13:36:23.616Z,99096.77
2023-05-19T13:37:30.931Z,99099.45
2023-05-19T13:38:37.815Z,99101.35
2023-05-19T13:39:44.628Z,99101.50
2023-05-19T13:40:51.430Z,99104.20
2023-05-19T13:42:04.144Z,99107.91
2023-05-19T13:43:11.022Z,99108.73
2023-05-19T13:44:18.227Z,99112.11